createdAt,value
2018-12-14T01:54:15.617Z,1.10
2018-12-14T01:56:44.002Z,1.00
2018-12-14T01:59:12.404Z,1.00
2018-12-14T02:45:34.079Z,1.00
2018-12-14T02:48:02.468Z,0.90
2018-12-14T02:50:30.879Z,0.90
2018-12-14T02:52:59.265Z,0.90
2018-12-14T02:55:27.661Z,0.90
2018-12-14T02:57:56.047Z,0.90
2018-12-14T03:00:24.566Z,0.90
2018-12-14T03:02:53.183Z,0.80
2018-12-14T03:05:21.711Z,0.80
2018-12-14T03:07:50.138Z,0.80
2018-12-14T03:10:18.535Z,0.80
2018-12-14T03:12:47.884Z,0.80
2018-12-14T03:15:16.294Z,0.80
2018-12-14T03:17:44.681Z,0.80
2018-12-14T03:20:13.320Z,0.80
2018-12-14T03:22:41.716Z,0.80
2018-12-14T03:25:10.131Z,0.80
2018-12-14T03:27:38.518Z,0.80
2018-12-14T03:30:08.769Z,0.80
2018-12-14T03:32:37.400Z,0.80
2018-12-14T03:35:06.156Z,0.80
2018-12-14T03:37:34.578Z,0.80
2018-12-14T03:40:03.196Z,0.80
2018-12-14T03:42:34.656Z,0.80
2018-12-14T03:45:01.954Z,0.80
2018-12-14T03:47:30.338Z,0.80
2018-12-14T03:49:58.843Z,0.70
2018-12-14T03:52:27.216Z,0.70
2018-12-14T03:54:55.599Z,0.70
2018-12-14T03:57:23.965Z,0.70
2018-12-14T03:59:52.467Z,0.70
2018-12-14T04:02:20.828Z,0.70
2018-12-14T04:04:49.208Z,0.70
2018-12-14T04:07:17.565Z,0.70
2018-12-14T04:09:45.956Z,0.70
2018-12-14T04:12:14.317Z,0.70
2018-12-14T04:14:42.811Z,0.70
2018-12-14T04:17:11.177Z,0.70
2018-12-14T04:19:39.566Z,0.70
2018-12-14T04:22:07.924Z,0.70
2018-12-14T04:24:36.300Z,0.70
2018-12-14T04:27:04.697Z,0.70
2018-12-14T04:29:33.093Z,0.70
2018-12-14T04:32:01.485Z,0.70
2018-12-14T04:34:29.893Z,0.70
2018-12-14T04:36:58.292Z,0.70
2018-12-14T04:39:26.688Z,0.70
2018-12-14T04:41:55.067Z,0.70
2018-12-14T04:44:23.440Z,0.70
2018-12-14T04:46:51.827Z,0.70
2018-12-14T04:49:20.296Z,0.70
2018-12-14T04:51:48.681Z,0.70
2018-12-14T04:54:17.052Z,0.70
2018-12-14T04:56:45.441Z,0.70
2018-12-14T04:59:13.798Z,0.70
2018-12-14T05:01:42.189Z,0.70
2018-12-14T05:04:10.552Z,0.70
2018-12-14T05:06:38.937Z,0.70
2018-12-14T05:09:07.664Z,0.60
2018-12-14T05:11:36.047Z,0.60
2018-12-14T05:14:04.433Z,0.60
2018-12-14T05:16:32.819Z,0.60
2018-12-14T05:19:01.187Z,0.60
2018-12-14T05:21:29.573Z,0.60
2018-12-14T05:23:57.931Z,0.60
2018-12-14T05:26:26.300Z,0.60
2018-12-14T05:28:54.660Z,0.60
2018-12-14T05:31:23.040Z,0.70
2018-12-14T05:33:51.423Z,0.60
2018-12-14T05:36:19.803Z,0.60
2018-12-14T05:38:48.170Z,0.60
2018-12-14T05:41:16.572Z,0.60
2018-12-14T05:43:44.948Z,0.60
2018-12-14T05:46:13.332Z,0.60
2018-12-14T05:48:41.688Z,0.60
2018-12-14T05:51:10.067Z,0.60
2018-12-14T05:53:38.436Z,0.60
2018-12-14T05:56:06.927Z,0.60
2018-12-14T05:58:35.283Z,0.60
2018-12-14T06:01:03.768Z,0.60
2018-12-14T06:03:32.140Z,0.60
2018-12-14T06:06:00.538Z,0.60
2018-12-14T06:08:29.012Z,0.60
2018-12-14T06:10:57.500Z,0.60
2018-12-14T06:13:25.867Z,0.50
2018-12-14T06:15:54.252Z,0.50
2018-12-14T06:18:22.603Z,0.50
2018-12-14T06:20:50.997Z,0.50
2018-12-14T06:23:19.358Z,0.50
2018-12-14T06:25:47.739Z,0.50
2018-12-14T06:28:16.108Z,0.50
2018-12-14T06:30:44.487Z,0.50
2018-12-14T06:33:12.884Z,0.50
2018-12-14T06:35:41.577Z,0.50
2018-12-14T06:38:09.980Z,0.50
2018-12-14T06:40:38.562Z,0.50
2018-12-14T06:43:07.019Z,0.50
2018-12-14T06:45:35.419Z,0.50
2018-12-14T06:48:03.908Z,0.50
2018-12-14T06:50:32.744Z,0.50
2018-12-14T06:53:01.349Z,0.50
2018-12-14T06:55:29.703Z,0.40
2018-12-14T06:57:58.079Z,0.50
2018-12-14T07:00:26.459Z,0.40
2018-12-14T07:02:54.900Z,0.40
2018-12-14T07:05:23.276Z,0.50
2018-12-14T07:07:53.745Z,0.50
2018-12-14T07:10:22.171Z,0.60
2018-12-14T07:12:50.568Z,0.80
2018-12-14T07:15:18.948Z,0.70
2018-12-14T07:17:47.475Z,0.70
2018-12-14T07:20:15.849Z,1.20
2018-12-14T07:22:44.234Z,0.90
2018-12-14T07:25:12.726Z,0.90
2018-12-14T07:27:41.240Z,0.70
2018-12-14T07:30:09.698Z,0.80
2018-12-14T07:32:38.253Z,0.70
2018-12-14T07:35:06.871Z,0.60
2018-12-14T07:37:35.292Z,0.50
2018-12-14T07:40:04.181Z,0.50
2018-12-14T07:42:32.580Z,0.50
2018-12-14T07:45:00.954Z,0.50
2018-12-14T07:47:29.368Z,0.50
2018-12-14T07:49:57.762Z,0.60
2018-12-14T07:52:26.174Z,0.50
2018-12-14T07:54:54.551Z,0.50
2018-12-14T07:57:22.956Z,0.50
2018-12-14T07:59:51.340Z,0.50
2018-12-14T08:02:19.747Z,0.60
2018-12-14T08:04:48.156Z,0.60
2018-12-14T08:07:16.577Z,0.50
2018-12-14T08:09:44.967Z,0.50
2018-12-14T08:12:13.355Z,0.50
2018-12-14T08:14:41.756Z,0.50
2018-12-14T08:17:10.166Z,0.50
2018-12-14T08:19:38.563Z,0.50
2018-12-14T08:22:06.976Z,0.60
2018-12-14T08:24:35.345Z,0.50
2018-12-14T08:27:03.788Z,0.50
2018-12-14T08:29:32.197Z,0.50
2018-12-14T08:32:00.607Z,0.50
2018-12-14T08:34:29.009Z,0.50
2018-12-14T08:36:57.396Z,0.50
2018-12-14T08:39:25.891Z,0.50
2018-12-14T08:41:54.283Z,0.50
2018-12-14T08:44:22.693Z,0.50
2018-12-14T08:46:51.080Z,0.50
2018-12-14T08:49:19.491Z,0.50
2018-12-14T08:51:51.767Z,0.50
2018-12-14T08:54:20.124Z,0.50
2018-12-14T08:56:48.499Z,0.50
2018-12-14T08:59:16.859Z,0.50
2018-12-14T09:01:45.241Z,0.60
2018-12-14T09:04:14.942Z,0.60
2018-12-14T09:06:43.433Z,0.50
2018-12-14T09:09:11.841Z,0.50
2018-12-14T09:11:40.404Z,0.50
2018-12-14T09:14:08.888Z,0.60
2018-12-14T09:16:37.279Z,0.60
2018-12-14T09:19:05.765Z,0.60
2018-12-14T09:21:34.159Z,0.60
2018-12-14T09:24:02.562Z,0.60
2018-12-14T09:26:30.927Z,0.60
2018-12-14T09:28:59.519Z,0.60
2018-12-14T09:31:28.315Z,0.60
2018-12-14T09:33:56.730Z,0.60
2018-12-14T09:36:25.109Z,0.60
2018-12-14T09:38:53.506Z,0.50
2018-12-14T09:41:21.899Z,0.60
2018-12-14T09:43:54.387Z,0.70
2018-12-14T09:46:20.699Z,0.70
2018-12-14T09:48:49.092Z,0.70
2018-12-14T09:51:17.468Z,0.70
2018-12-14T09:53:45.871Z,0.70
2018-12-14T09:56:14.265Z,0.70
2018-12-14T09:58:42.669Z,0.60
2018-12-14T10:01:11.040Z,0.60
2018-12-14T10:03:39.431Z,0.70
2018-12-14T10:06:07.835Z,0.60
2018-12-14T10:08:36.234Z,0.60
2018-12-14T10:11:04.628Z,0.60
2018-12-14T10:13:33.127Z,0.60
2018-12-14T10:16:01.824Z,0.70
2018-12-14T10:18:30.344Z,0.80
2018-12-14T10:20:58.738Z,0.70
2018-12-14T10:23:27.144Z,0.70
2018-12-14T10:25:55.522Z,0.80
2018-12-14T10:28:23.950Z,0.80
2018-12-14T10:30:52.324Z,0.80
2018-12-14T10:33:20.726Z,0.80
2018-12-14T10:35:49.085Z,0.80
2018-12-14T10:38:17.469Z,0.80
2018-12-14T10:40:45.841Z,0.80
2018-12-14T10:43:14.219Z,0.80
2018-12-14T10:45:42.785Z,0.80
2018-12-14T10:48:11.175Z,0.80
2018-12-14T10:50:39.900Z,0.70
2018-12-14T10:53:12.685Z,0.80
2018-12-14T10:55:41.336Z,0.80
2018-12-14T10:58:09.944Z,0.80
2018-12-14T11:00:43.676Z,0.70
2018-12-14T11:03:12.076Z,0.70
2018-12-14T11:05:40.447Z,0.70
2018-12-14T11:08:08.833Z,0.80
2018-12-14T11:10:37.225Z,0.80
2018-12-14T11:13:05.745Z,0.70
2018-12-14T11:15:34.129Z,0.70
2018-12-14T11:18:02.525Z,0.70
2018-12-14T11:20:31.008Z,0.80
2018-12-14T11:22:59.389Z,0.80
2018-12-14T11:25:27.761Z,0.80
2018-12-14T11:27:56.156Z,0.80
2018-12-14T11:30:24.532Z,0.70
2018-12-14T11:32:52.945Z,0.80
2018-12-14T11:35:21.316Z,0.80
2018-12-14T11:37:49.689Z,0.80
2018-12-14T11:40:18.047Z,0.70
2018-12-14T11:42:46.564Z,0.70
2018-12-14T11:45:14.920Z,0.80
2018-12-14T11:47:43.308Z,0.80
2018-12-14T11:50:12.248Z,0.80
2018-12-14T11:52:40.639Z,0.80
2018-12-14T11:55:10.171Z,0.90
2018-12-14T11:57:38.536Z,0.80
2018-12-14T12:00:10.550Z,0.80
2018-12-14T12:02:43.110Z,0.70
2018-12-14T12:05:09.297Z,0.70
2018-12-14T12:07:38.583Z,0.70
2018-12-14T12:10:09.086Z,0.70
2018-12-14T12:12:37.990Z,0.80
2018-12-14T12:15:06.676Z,0.80
2018-12-14T12:17:36.819Z,0.80
2018-12-14T12:20:05.523Z,0.70
2018-12-14T12:22:33.883Z,0.80
2018-12-14T12:25:02.276Z,0.80
2018-12-14T12:27:30.647Z,0.90
2018-12-14T12:29:59.025Z,0.90
2018-12-14T12:32:27.526Z,0.90
2018-12-14T12:34:55.903Z,0.90
2018-12-14T12:37:24.263Z,0.80
2018-12-14T12:39:52.644Z,0.80
2018-12-14T12:42:21.015Z,0.80
2018-12-14T12:44:49.401Z,0.80
2018-12-14T12:47:17.760Z,0.80
2018-12-14T12:49:46.160Z,0.90
2018-12-14T12:52:14.524Z,0.80
2018-12-14T12:54:42.912Z,0.90
2018-12-14T12:57:11.272Z,0.80
2018-12-14T12:59:39.861Z,0.80
2018-12-14T13:02:08.241Z,0.80
2018-12-14T13:04:36.844Z,0.80
2018-12-14T13:07:05.335Z,0.80
2018-12-14T13:09:33.718Z,0.80
2018-12-14T13:12:02.106Z,0.80
2018-12-14T13:14:30.484Z,0.70
2018-12-14T13:16:58.869Z,0.70
2018-12-14T13:19:27.252Z,0.70
2018-12-14T13:21:55.600Z,0.70
2018-12-14T13:24:24.018Z,0.70
2018-12-14T13:26:52.388Z,0.70
2018-12-14T13:29:20.767Z,0.70
2018-12-14T13:31:49.145Z,0.70
2018-12-14T13:34:17.557Z,0.70
2018-12-14T13:36:45.951Z,0.70
2018-12-14T13:39:14.357Z,0.70
2018-12-14T13:41:42.757Z,0.70
2018-12-14T13:44:11.246Z,0.60
2018-12-14T13:46:39.675Z,0.70
2018-12-14T13:49:08.092Z,0.60
2018-12-14T13:51:36.484Z,0.60
2018-12-14T13:54:04.876Z,0.60
2018-12-14T13:56:34.335Z,0.50
2018-12-14T13:59:02.875Z,0.50
2018-12-14T14:01:31.263Z,0.50
2018-12-14T14:03:59.661Z,0.50
2018-12-14T14:06:28.046Z,0.50
2018-12-14T14:08:56.440Z,0.50
2018-12-14T14:11:24.832Z,0.50
2018-12-14T14:13:53.236Z,0.50
2018-12-14T14:16:21.617Z,0.50
2018-12-14T14:18:50.019Z,0.50
2018-12-14T14:21:18.396Z,0.40
2018-12-14T14:23:46.906Z,0.50
2018-12-14T14:26:15.304Z,0.50
2018-12-14T14:28:43.716Z,1.00
2018-12-14T14:31:12.124Z,0.90
2018-12-14T14:33:40.520Z,0.80
2018-12-14T14:36:08.922Z,0.60
2018-12-14T14:38:37.308Z,0.60
2018-12-14T14:41:05.699Z,0.50
2018-12-14T14:43:34.076Z,0.50
2018-12-14T14:46:02.481Z,0.40
2018-12-14T14:48:30.987Z,0.50
2018-12-14T14:50:59.395Z,0.50
2018-12-14T14:56:27.150Z,0.40
2018-12-14T14:58:55.543Z,0.40
2018-12-14T15:01:23.962Z,0.50
2018-12-14T15:03:52.460Z,0.40
2018-12-14T15:06:20.864Z,0.40
2018-12-14T15:08:49.563Z,0.40
2018-12-14T15:11:17.948Z,0.40
2018-12-14T15:13:46.348Z,0.40
2018-12-14T15:16:14.739Z,0.40
2018-12-14T15:18:43.128Z,0.40
2018-12-14T15:21:11.541Z,0.40
2018-12-14T15:23:39.948Z,0.30
2018-12-14T15:26:08.348Z,0.30
2018-12-14T15:28:36.734Z,0.30
2018-12-14T15:31:05.259Z,0.40
2018-12-14T15:33:33.710Z,0.30
2018-12-14T15:36:02.104Z,0.30
2018-12-14T15:38:30.835Z,0.30
2018-12-14T15:40:59.220Z,0.30
2018-12-14T15:43:27.624Z,0.30
2018-12-14T15:45:56.053Z,0.30
2018-12-14T15:48:24.562Z,0.30
2018-12-14T15:50:52.953Z,0.30
2018-12-14T15:53:21.327Z,0.30
2018-12-14T15:55:49.819Z,0.30
2018-12-14T15:58:18.197Z,0.30
2018-12-14T16:00:46.574Z,0.30
2018-12-14T16:03:14.943Z,0.30
2018-12-14T16:05:43.348Z,0.20
2018-12-14T16:08:11.711Z,0.30
2018-12-14T16:10:40.100Z,0.30
2018-12-14T16:13:08.469Z,0.30
2018-12-14T16:15:36.877Z,0.30
2018-12-14T16:18:05.338Z,0.30
2018-12-14T16:20:33.789Z,0.30
2018-12-14T16:23:02.188Z,0.20
2018-12-14T16:25:30.673Z,0.20
2018-12-14T16:27:59.153Z,0.20
2018-12-14T16:30:27.703Z,0.30
2018-12-14T16:32:56.208Z,0.30
2018-12-14T16:35:24.623Z,0.30
2018-12-14T16:37:53.004Z,0.30
2018-12-14T16:40:21.404Z,0.30
2018-12-14T16:42:49.791Z,0.20
2018-12-14T16:45:18.366Z,0.30
2018-12-14T16:47:46.767Z,0.20
2018-12-14T16:50:15.177Z,0.20
2018-12-14T16:52:43.591Z,0.20
2018-12-14T16:55:12.117Z,0.20
2018-12-14T16:57:40.509Z,0.20
2018-12-14T17:00:10.038Z,0.20
2018-12-14T17:02:38.552Z,0.20
2018-12-14T17:05:07.328Z,0.20
2018-12-14T17:07:35.940Z,0.20
2018-12-14T17:10:04.933Z,0.20
2018-12-14T17:12:33.424Z,0.20
2018-12-14T17:15:01.823Z,0.20
2018-12-14T17:17:30.216Z,0.20
2018-12-14T17:19:58.633Z,0.20
2018-12-14T17:22:27.033Z,0.20
2018-12-14T17:24:55.544Z,0.20
2018-12-14T17:27:24.046Z,0.20
2018-12-14T17:29:52.436Z,0.20
2018-12-14T17:32:21.291Z,0.10
2018-12-14T17:34:49.726Z,0.20
2018-12-14T17:37:18.117Z,0.20
2018-12-14T17:39:46.507Z,0.20
2018-12-14T17:42:14.896Z,0.20
2018-12-14T17:44:43.270Z,0.20
2018-12-14T17:47:11.655Z,0.20
2018-12-14T17:49:40.033Z,0.20
2018-12-14T17:52:08.436Z,0.20
2018-12-14T17:54:36.811Z,0.20
2018-12-14T17:57:05.209Z,0.10
2018-12-14T17:59:34.532Z,0.20
2018-12-14T18:02:03.137Z,0.20
2018-12-14T18:04:31.606Z,0.10
2018-12-14T18:06:59.988Z,0.10
2018-12-14T18:09:28.428Z,0.10
2018-12-14T18:11:56.832Z,0.10
2018-12-14T18:14:26.066Z,0.10
2018-12-14T18:16:54.512Z,0.10
2018-12-14T18:19:22.956Z,0.20
2018-12-14T18:21:53.416Z,0.10
2018-12-14T18:24:21.843Z,0.10
2018-12-14T18:26:50.252Z,0.20
2018-12-14T18:29:18.657Z,0.20
2018-12-14T18:31:47.088Z,0.20
2018-12-14T18:34:15.519Z,0.20
2018-12-14T18:36:43.907Z,0.20
2018-12-14T18:39:12.292Z,0.20
2018-12-14T18:41:40.709Z,0.20
2018-12-14T18:44:09.100Z,0.20
2018-12-14T18:46:37.501Z,0.20
2018-12-14T18:49:05.899Z,0.20
2018-12-14T18:51:34.312Z,0.20
2018-12-14T18:54:02.687Z,0.20
2018-12-14T18:56:31.144Z,0.20
2018-12-14T18:58:59.818Z,0.20
2018-12-14T19:01:28.208Z,0.20
2018-12-14T19:03:56.995Z,0.20
2018-12-14T19:06:25.401Z,0.20
2018-12-14T19:08:53.796Z,0.20
2018-12-14T19:11:22.234Z,0.20
2018-12-14T19:13:50.615Z,0.20
2018-12-14T19:16:19.030Z,0.10
2018-12-14T19:18:47.398Z,0.20
2018-12-14T19:21:15.996Z,0.10
2018-12-14T19:23:44.384Z,0.20
2018-12-14T19:26:12.776Z,0.20
2018-12-14T19:28:41.162Z,0.10
2018-12-14T19:31:09.603Z,0.10
2018-12-14T19:33:38.118Z,0.20
2018-12-14T19:36:06.600Z,0.20
2018-12-14T19:38:35.052Z,0.20
2018-12-14T19:41:03.768Z,0.10
2018-12-14T19:43:32.204Z,0.20
2018-12-14T19:46:06.133Z,0.10
2018-12-14T19:48:31.178Z,0.10
2018-12-14T19:50:59.643Z,0.10
2018-12-14T19:53:28.065Z,0.10
2018-12-14T19:55:56.504Z,0.10
2018-12-14T19:58:25.001Z,0.10
2018-12-14T20:00:53.548Z,0.10
2018-12-14T20:03:22.037Z,0.10
2018-12-14T20:05:50.435Z,0.10
2018-12-14T20:08:18.882Z,0.10
2018-12-14T20:10:48.603Z,0.10
2018-12-14T20:13:17.228Z,0.10
2018-12-14T20:15:45.656Z,0.00
2018-12-14T20:18:14.124Z,0.00
2018-12-14T20:20:42.541Z,0.00
2018-12-14T20:23:10.957Z,0.10
2018-12-14T20:25:39.376Z,0.00
2018-12-14T20:28:07.849Z,0.00
2018-12-14T20:30:36.252Z,0.00
2018-12-14T20:33:04.725Z,0.10
2018-12-14T20:35:33.195Z,0.10
2018-12-14T20:38:01.859Z,0.10
2018-12-14T20:40:30.312Z,0.10
2018-12-14T20:42:58.800Z,0.00
2018-12-14T20:45:27.304Z,0.10
2018-12-14T20:47:55.828Z,0.10
2018-12-14T20:50:24.315Z,0.10
2018-12-14T20:52:52.758Z,0.10
2018-12-14T20:55:21.275Z,0.10
2018-12-14T20:57:50.013Z,0.10
2018-12-14T21:00:19.255Z,0.10
2018-12-14T21:02:47.752Z,0.10
2018-12-14T21:05:16.601Z,0.10
2018-12-14T21:07:45.204Z,0.10
2018-12-14T21:10:13.875Z,0.10
2018-12-14T21:12:42.927Z,0.10
2018-12-14T21:15:11.471Z,0.10
2018-12-14T21:17:44.117Z,0.10
2018-12-14T21:20:13.156Z,0.00
2018-12-14T21:22:41.671Z,0.00
2018-12-14T21:25:10.194Z,0.10
2018-12-14T21:27:38.655Z,0.10
2018-12-14T21:30:08.895Z,0.10
2018-12-14T21:32:37.507Z,0.00
2018-12-14T21:35:06.460Z,0.00
2018-12-14T21:37:35.589Z,0.00
2018-12-14T21:40:04.489Z,0.00
2018-12-14T21:42:34.264Z,0.10
2018-12-14T21:45:06.832Z,0.10
2018-12-14T21:47:35.501Z,0.00
2018-12-14T21:50:04.334Z,0.10
2018-12-14T21:52:32.884Z,0.10
2018-12-14T21:55:01.311Z,0.10
2018-12-14T21:57:30.047Z,0.10
2018-12-14T21:59:58.515Z,0.00
2018-12-14T22:02:27.086Z,0.00
2018-12-14T22:04:55.533Z,0.00
2018-12-14T22:07:24.156Z,0.00
2018-12-14T22:09:52.673Z,0.00
2018-12-14T22:12:21.124Z,0.00
2018-12-14T22:14:49.570Z,0.10
2018-12-14T22:17:18.139Z,0.00
2018-12-14T22:19:46.595Z,0.00
2018-12-14T22:22:15.059Z,0.00
2018-12-14T22:24:43.560Z,0.00
2018-12-14T22:27:12.182Z,0.00
2018-12-14T22:29:40.814Z,0.00
2018-12-14T22:32:09.270Z,0.00
2018-12-14T22:34:37.773Z,0.00
2018-12-14T22:37:06.199Z,0.00
2018-12-14T22:39:35.204Z,0.00
2018-12-14T22:42:03.725Z,0.00
2018-12-14T22:44:32.312Z,0.00
2018-12-14T22:47:00.778Z,0.00
2018-12-14T22:49:29.250Z,0.00
2018-12-14T22:51:57.652Z,-0.10
2018-12-14T22:54:26.069Z,-0.10
2018-12-14T22:56:54.518Z,0.00
2018-12-14T22:59:22.992Z,0.00
2018-12-14T23:01:51.452Z,0.00
2018-12-14T23:04:19.955Z,0.00
2018-12-14T23:06:48.359Z,0.00
2018-12-14T23:09:16.853Z,-0.10
2018-12-14T23:11:45.288Z,-0.10
2018-12-14T23:14:13.728Z,-0.10
2018-12-14T23:16:42.264Z,0.00
2018-12-14T23:19:10.744Z,0.00
2018-12-14T23:21:39.185Z,-0.10
2018-12-14T23:24:07.629Z,0.00
2018-12-14T23:26:36.096Z,0.00
2018-12-14T23:29:04.633Z,0.00
2018-12-14T23:31:33.087Z,-0.10
2018-12-14T23:34:01.542Z,-0.10
2018-12-14T23:36:29.987Z,-0.10
2018-12-14T23:38:58.456Z,-0.10
2018-12-14T23:41:26.893Z,-0.10
2018-12-14T23:43:55.364Z,-0.10
2018-12-14T23:46:23.830Z,-0.10
2018-12-14T23:48:52.300Z,0.00
2018-12-14T23:51:20.718Z,0.00
2018-12-14T23:53:49.198Z,0.00
2018-12-14T23:56:17.824Z,0.00
2018-12-14T23:58:46.246Z,0.00
